createdAt,value
2019-04-26T00:00:15.909Z,18.40
2019-04-26T00:02:58.426Z,18.50
2019-04-26T00:05:39.157Z,18.40
2019-04-26T00:08:20.108Z,18.40
2019-04-26T00:11:05.779Z,18.40
2019-04-26T00:14:06.117Z,18.40
2019-04-26T00:16:51.001Z,18.40
2019-04-26T00:19:31.684Z,18.30
2019-04-26T00:22:12.980Z,18.30
2019-04-26T00:24:54.406Z,18.30
2019-04-26T00:27:35.160Z,18.20
2019-04-26T00:30:16.976Z,18.20
2019-04-26T00:32:45.920Z,18.10
2019-04-26T00:35:15.620Z,18.00
2019-04-26T00:38:03.913Z,17.90
2019-04-26T00:40:52.148Z,17.80
2019-04-26T00:46:40.647Z,17.70
2019-04-26T00:49:21.245Z,17.70
2019-04-26T00:52:02.532Z,17.60
2019-04-26T00:54:43.041Z,17.60
2019-04-26T00:57:24.422Z,17.60
2019-04-26T01:00:05.551Z,17.50
2019-04-26T01:02:47.882Z,17.50
2019-04-26T01:05:30.608Z,17.50
2019-04-26T01:08:11.194Z,17.50
2019-04-26T01:10:51.813Z,17.50
2019-04-26T01:13:32.277Z,17.50
2019-04-26T01:16:13.508Z,17.40
2019-04-26T01:18:54.736Z,17.40
2019-04-26T01:21:35.456Z,17.40
2019-04-26T01:24:17.850Z,17.40
2019-04-26T01:26:59.012Z,17.40
2019-04-26T01:29:39.976Z,17.30
2019-04-26T01:32:21.983Z,17.30
2019-04-26T01:35:03.385Z,17.30
2019-04-26T01:37:43.820Z,17.40
2019-04-26T01:40:26.220Z,17.40
2019-04-26T01:43:26.413Z,17.40
2019-04-26T01:46:09.244Z,17.30
2019-04-26T01:48:50.232Z,17.30
2019-04-26T01:51:30.761Z,17.30
2019-04-26T01:54:11.652Z,17.30
2019-04-26T01:56:53.067Z,17.20
2019-04-26T01:59:33.973Z,17.30
2019-04-26T02:05:09.940Z,17.20
2019-04-26T02:07:51.265Z,17.20
2019-04-26T02:10:32.742Z,17.20
2019-04-26T02:13:13.236Z,17.10
2019-04-26T02:15:53.693Z,17.10
2019-04-26T02:18:34.293Z,17.00
2019-04-26T02:24:10.083Z,17.00
2019-04-26T02:26:50.770Z,17.00
2019-04-26T02:29:32.733Z,16.90
2019-04-26T02:32:13.884Z,16.80
2019-04-26T02:34:54.357Z,16.90
2019-04-26T02:37:36.749Z,16.80
2019-04-26T02:40:18.052Z,16.70
2019-04-26T02:42:58.732Z,16.70
2019-04-26T02:46:07.413Z,16.70
2019-04-26T02:49:07.565Z,16.70
2019-04-26T02:51:48.829Z,16.70
2019-04-26T02:54:48.583Z,16.60
2019-04-26T02:57:20.229Z,16.60
2019-04-26T02:59:50.521Z,16.60
2019-04-26T03:02:40.344Z,16.60
2019-04-26T03:08:42.776Z,16.60
2019-04-26T03:11:51.338Z,16.50
2019-04-26T03:15:13.373Z,16.50
2019-04-26T03:18:10.304Z,16.50
2019-04-26T03:21:19.333Z,16.50
2019-04-26T03:24:26.881Z,16.50
2019-04-26T03:27:38.056Z,16.50
2019-04-26T03:30:51.956Z,16.50
2019-04-26T03:33:55.249Z,16.60
2019-04-26T03:40:38.962Z,16.50
2019-04-26T03:43:45.913Z,16.40
2019-04-26T03:46:54.641Z,16.40
2019-04-26T03:50:01.960Z,16.30
2019-04-26T03:52:44.076Z,16.20
2019-04-26T03:55:24.973Z,16.10
2019-04-26T03:58:07.888Z,16.10
2019-04-26T04:01:07.742Z,16.00
2019-04-26T04:03:52.902Z,15.90
2019-04-26T04:06:52.430Z,15.80
2019-04-26T04:09:18.140Z,15.70
2019-04-26T04:12:11.026Z,15.70
2019-04-26T04:14:42.706Z,15.70
2019-04-26T04:17:25.771Z,15.60
2019-04-26T04:20:08.041Z,15.60
2019-04-26T04:22:49.392Z,15.50
2019-04-26T04:25:30.705Z,15.40
2019-04-26T04:28:12.130Z,15.40
2019-04-26T04:30:53.364Z,15.20
2019-04-26T04:33:34.360Z,15.20
2019-04-26T04:36:15.226Z,15.30
2019-04-26T04:39:11.315Z,15.40
2019-04-26T04:41:41.041Z,15.30
2019-04-26T04:44:24.200Z,15.70
2019-04-26T04:47:23.762Z,15.90
2019-04-26T04:49:54.165Z,16.20
2019-04-26T04:52:28.316Z,16.20
2019-04-26T04:55:07.152Z,16.20
2019-04-26T04:58:09.533Z,16.30
2019-04-26T05:01:18.541Z,16.30
2019-04-26T05:04:27.349Z,16.20
2019-04-26T05:07:36.042Z,15.90
2019-04-26T05:10:44.219Z,15.80
2019-04-26T05:13:52.217Z,15.60
2019-04-26T05:16:59.785Z,15.50
2019-04-26T05:19:39.963Z,15.50
2019-04-26T05:22:40.221Z,15.40
2019-04-26T05:25:45.135Z,15.30
2019-04-26T05:29:12.910Z,15.20
2019-04-26T05:32:20.157Z,15.20
2019-04-26T05:35:47.359Z,15.20
2019-04-26T05:38:55.358Z,15.10
2019-04-26T05:42:04.637Z,15.10
2019-04-26T05:45:31.067Z,15.10
2019-04-26T05:51:45.393Z,15.10
2019-04-26T05:54:36.253Z,15.10
2019-04-26T05:57:34.824Z,15.30
2019-04-26T06:00:28.922Z,15.30
2019-04-26T06:03:23.236Z,15.50
2019-04-26T06:06:05.541Z,16.10
2019-04-26T06:09:14.181Z,17.20
2019-04-26T06:12:40.657Z,18.70
2019-04-26T06:16:07.125Z,19.50
2019-04-26T06:19:33.614Z,19.20
2019-04-26T06:22:40.926Z,18.60
2019-04-26T06:25:49.912Z,18.60
2019-04-26T06:28:57.501Z,19.40
2019-04-26T06:32:04.780Z,20.00
2019-04-26T06:35:12.312Z,20.80
2019-04-26T06:38:21.000Z,20.70
2019-04-26T06:41:28.280Z,20.30
2019-04-26T06:44:36.929Z,19.90
2019-04-26T06:47:45.613Z,19.40
2019-04-26T06:50:58.373Z,19.20
2019-04-26T06:53:39.320Z,19.60
2019-04-26T06:56:22.120Z,19.60
2019-04-26T06:59:03.482Z,20.10
2019-04-26T07:01:44.540Z,20.30
2019-04-26T07:04:25.740Z,20.50
2019-04-26T07:07:07.490Z,20.60
2019-04-26T07:09:48.461Z,20.80
2019-04-26T07:12:31.245Z,20.90
2019-04-26T07:15:12.206Z,20.70
2019-04-26T07:17:59.100Z,20.80
2019-04-26T07:20:33.908Z,21.00
2019-04-26T07:23:21.910Z,21.00
2019-04-26T07:26:09.928Z,20.90
2019-04-26T07:28:50.712Z,20.90
2019-04-26T07:31:32.089Z,21.10
2019-04-26T07:34:14.748Z,21.20
2019-04-26T07:36:55.409Z,21.30
2019-04-26T07:39:55.569Z,21.50
2019-04-26T07:45:46.876Z,21.90
2019-04-26T07:48:18.168Z,21.80
2019-04-26T07:50:59.755Z,21.60
2019-04-26T07:53:41.642Z,21.50
2019-04-26T07:56:22.492Z,21.70
2019-04-26T07:59:05.577Z,22.00
2019-04-26T08:01:50.677Z,22.10
2019-04-26T08:04:33.265Z,22.10
2019-04-26T08:07:15.344Z,22.30
2019-04-26T08:09:59.955Z,22.40
2019-04-26T08:12:38.184Z,22.40
2019-04-26T08:15:37.865Z,22.60
2019-04-26T08:18:46.505Z,22.60
2019-04-26T08:21:55.232Z,22.60
2019-04-26T08:25:04.184Z,22.70
2019-04-26T08:28:12.833Z,22.60
2019-04-26T08:34:21.101Z,22.50
2019-04-26T08:37:27.300Z,22.30
2019-04-26T08:40:23.043Z,22.00
2019-04-26T08:43:27.272Z,21.70
2019-04-26T08:46:36.267Z,21.40
2019-04-26T08:49:44.741Z,21.30
2019-04-26T08:52:27.735Z,21.30
2019-04-26T08:55:08.204Z,21.30
2019-04-26T08:57:49.232Z,21.40
2019-04-26T09:00:31.988Z,21.40
2019-04-26T09:03:11.409Z,21.30
2019-04-26T09:05:54.831Z,21.40
2019-04-26T09:09:03.536Z,21.60
2019-04-26T09:12:22.511Z,21.60
2019-04-26T09:15:21.545Z,21.60
2019-04-26T09:18:09.500Z,21.90
2019-04-26T09:21:09.303Z,22.20
2019-04-26T09:24:08.244Z,22.20
2019-04-26T09:27:17.159Z,22.30
2019-04-26T09:33:52.032Z,22.20
2019-04-26T09:36:40.092Z,21.90
2019-04-26T09:45:40.375Z,21.50
2019-04-26T09:48:47.486Z,21.40
2019-04-26T09:51:56.876Z,21.50
2019-04-26T09:54:38.457Z,21.50
2019-04-26T09:57:19.949Z,21.70
2019-04-26T10:00:00.609Z,21.60
2019-04-26T10:02:41.957Z,21.20
2019-04-26T10:05:11.996Z,20.90
2019-04-26T10:07:41.748Z,20.80
2019-04-26T10:13:47.331Z,20.60
2019-04-26T10:16:54.493Z,20.40
2019-04-26T10:20:01.629Z,20.10
2019-04-26T10:22:49.617Z,20.00
2019-04-26T10:28:30.874Z,19.90
2019-04-26T10:34:13.028Z,19.80
2019-04-26T10:37:06.222Z,19.90
2019-04-26T10:40:03.561Z,19.70
2019-04-26T10:42:42.001Z,19.60
2019-04-26T10:48:41.196Z,19.40
2019-04-26T10:51:47.835Z,19.40
2019-04-26T10:54:28.665Z,19.50
2019-04-26T10:57:11.431Z,19.50
2019-04-26T10:59:57.336Z,19.40
2019-04-26T11:02:38.449Z,19.30
2019-04-26T11:05:19.457Z,19.20
2019-04-26T11:08:00.208Z,19.20
2019-04-26T11:10:48.464Z,19.10
2019-04-26T11:13:23.177Z,19.00
2019-04-26T11:16:07.222Z,18.90
2019-04-26T11:18:46.554Z,18.80
2019-04-26T11:21:27.729Z,18.80
2019-04-26T11:24:08.167Z,18.70
2019-04-26T11:26:49.227Z,18.60
2019-04-26T11:29:30.296Z,18.60
2019-04-26T11:32:02.748Z,18.80
2019-04-26T11:34:29.207Z,18.70
2019-04-26T11:36:57.918Z,18.70
2019-04-26T11:39:28.078Z,18.70
2019-04-26T11:42:16.295Z,18.80
2019-04-26T11:45:25.153Z,18.80
2019-04-26T11:48:13.113Z,18.80
2019-04-26T11:53:47.785Z,18.80
2019-04-26T11:56:28.807Z,18.70
2019-04-26T11:59:10.315Z,18.70
2019-04-26T12:01:51.175Z,18.80
2019-04-26T12:04:53.707Z,19.00
2019-04-26T12:07:35.985Z,19.10
2019-04-26T12:10:17.063Z,19.20
2019-04-26T12:13:05.508Z,19.10
2019-04-26T12:15:43.681Z,19.10
2019-04-26T12:18:22.676Z,19.00
2019-04-26T12:21:03.132Z,19.00
2019-04-26T12:23:44.688Z,19.00
2019-04-26T12:26:25.374Z,18.90
2019-04-26T12:29:06.483Z,19.00
2019-04-26T12:31:47.448Z,19.00
2019-04-26T12:34:17.955Z,19.00
2019-04-26T12:37:05.908Z,19.10
2019-04-26T12:42:48.349Z,19.00
2019-04-26T12:45:56.337Z,19.00
2019-04-26T12:51:52.881Z,19.00
2019-04-26T12:54:21.495Z,18.80
2019-04-26T12:56:50.079Z,18.70
2019-04-26T12:59:22.339Z,18.50
2019-04-26T13:05:19.038Z,18.20
2019-04-26T13:08:04.845Z,18.00
2019-04-26T13:17:15.556Z,17.80
2019-04-26T13:20:28.444Z,17.70
2019-04-26T13:23:13.854Z,17.50
2019-04-26T13:26:01.821Z,17.30
2019-04-26T13:28:52.461Z,17.30
2019-04-26T13:31:39.350Z,17.20
2019-04-26T13:34:08.864Z,17.10
2019-04-26T13:36:37.452Z,17.00
2019-04-26T13:39:09.449Z,17.00
2019-04-26T13:41:40.249Z,17.00
2019-04-26T13:44:47.721Z,16.90
2019-04-26T13:47:54.829Z,16.90
2019-04-26T13:53:37.727Z,16.80
2019-04-26T13:56:18.553Z,16.80
2019-04-26T13:58:59.878Z,16.80
2019-04-26T14:01:40.381Z,16.70
2019-04-26T14:04:21.850Z,16.70
2019-04-26T14:07:02.875Z,16.90
2019-04-26T14:09:44.274Z,16.90
2019-04-26T14:12:25.697Z,16.90
2019-04-26T14:15:08.635Z,17.00
2019-04-26T14:17:49.652Z,17.10
2019-04-26T14:20:30.685Z,17.10
2019-04-26T14:23:33.409Z,17.00
2019-04-26T14:26:17.159Z,16.90
2019-04-26T14:28:59.769Z,16.80
2019-04-26T14:31:41.088Z,16.70
2019-04-26T14:34:22.382Z,16.70
2019-04-26T14:37:06.567Z,16.80
2019-04-26T14:39:50.679Z,16.80
2019-04-26T14:42:38.310Z,16.70
2019-04-26T14:45:22.601Z,16.60
2019-04-26T14:47:53.522Z,16.60
2019-04-26T14:50:34.654Z,16.50
2019-04-26T14:53:15.752Z,16.60
2019-04-26T14:55:56.780Z,16.60
2019-04-26T14:58:38.342Z,16.50
2019-04-26T15:04:45.998Z,16.50
2019-04-26T15:07:28.241Z,16.50
2019-04-26T15:10:11.059Z,16.50
2019-04-26T15:13:11.631Z,16.50
2019-04-26T15:15:35.936Z,16.50
2019-04-26T15:18:17.481Z,16.40
2019-04-26T15:20:58.697Z,16.50
2019-04-26T15:23:40.301Z,16.40
2019-04-26T15:26:24.393Z,16.30
2019-04-26T15:29:04.617Z,16.30
2019-04-26T15:31:45.767Z,16.10
2019-04-26T15:34:14.471Z,16.10
2019-04-26T15:37:03.038Z,16.10
2019-04-26T15:42:29.227Z,16.00
2019-04-26T15:48:32.756Z,15.90
2019-04-26T15:51:39.865Z,15.90
2019-04-26T15:54:27.840Z,16.00
2019-04-26T15:57:09.141Z,16.00
2019-04-26T15:59:50.289Z,16.10
2019-04-26T16:02:32.098Z,16.10
2019-04-26T16:05:12.657Z,16.00
2019-04-26T16:07:53.421Z,15.90
2019-04-26T16:10:25.632Z,16.00
2019-04-26T16:13:21.387Z,15.90
2019-04-26T16:16:03.764Z,16.00
2019-04-26T16:18:55.522Z,16.00
2019-04-26T16:21:42.578Z,16.00
2019-04-26T16:24:34.212Z,15.90
2019-04-26T16:30:48.318Z,15.90
2019-04-26T16:36:45.440Z,15.70
2019-04-26T16:39:38.930Z,15.60
2019-04-26T16:42:24.757Z,15.70
2019-04-26T16:45:12.777Z,15.70
2019-04-26T16:48:01.889Z,15.80
2019-04-26T16:50:51.023Z,15.80
2019-04-26T16:53:58.819Z,15.70
2019-04-26T16:56:26.637Z,15.60
2019-04-26T16:59:06.030Z,15.50
2019-04-26T17:01:47.457Z,15.50
2019-04-26T17:04:32.093Z,15.50
2019-04-26T17:07:10.308Z,15.40
2019-04-26T17:09:58.157Z,15.40
2019-04-26T17:12:33.907Z,15.40
2019-04-26T17:15:17.484Z,15.30
2019-04-26T17:17:57.340Z,15.30
2019-04-26T17:20:25.985Z,15.20
2019-04-26T17:23:03.292Z,15.10
2019-04-26T17:25:55.211Z,14.90
2019-04-26T17:28:22.965Z,14.80
2019-04-26T17:30:53.081Z,14.80
2019-04-26T17:33:22.690Z,14.70
2019-04-26T17:35:53.235Z,14.60
2019-04-26T17:38:22.524Z,14.50
2019-04-26T17:40:52.311Z,14.50
2019-04-26T17:43:21.242Z,14.50
2019-04-26T17:45:51.525Z,14.50
2019-04-26T17:48:21.163Z,14.40
2019-04-26T17:50:50.276Z,14.40
2019-04-26T17:53:28.137Z,14.40
2019-04-26T17:55:52.971Z,14.40
2019-04-26T17:58:27.494Z,14.30
2019-04-26T18:00:51.546Z,14.30
2019-04-26T18:03:21.445Z,14.20
2019-04-26T18:05:57.039Z,14.20
2019-04-26T18:08:36.123Z,14.20
2019-04-26T18:10:51.668Z,14.10
2019-04-26T18:13:20.568Z,14.10
2019-04-26T18:15:49.393Z,14.10
2019-04-26T18:18:35.715Z,14.10
2019-04-26T18:21:12.995Z,14.10
2019-04-26T18:23:42.654Z,14.00
2019-04-26T18:26:13.181Z,14.00
2019-04-26T18:28:49.379Z,13.90
2019-04-26T18:31:16.426Z,13.90
2019-04-26T18:33:44.357Z,13.90
2019-04-26T18:36:13.188Z,13.90
2019-04-26T18:38:43.135Z,13.90
2019-04-26T18:41:13.634Z,13.90
2019-04-26T18:43:43.018Z,13.80
2019-04-26T18:46:16.065Z,13.80
2019-04-26T18:48:44.765Z,13.80
2019-04-26T18:51:13.455Z,13.70
2019-04-26T18:54:00.237Z,13.70
2019-04-26T18:56:29.169Z,13.80
2019-04-26T18:58:57.905Z,13.70
2019-04-26T19:01:26.534Z,13.70
2019-04-26T19:03:55.113Z,13.60
2019-04-26T19:06:30.996Z,13.60
2019-04-26T19:08:57.537Z,13.60
2019-04-26T19:11:24.640Z,13.70
2019-04-26T19:14:14.982Z,13.80
2019-04-26T19:17:01.896Z,13.70
2019-04-26T19:19:38.342Z,13.70
2019-04-26T19:22:09.362Z,13.80
2019-04-26T19:24:39.137Z,13.80
2019-04-26T19:27:07.828Z,13.80
2019-04-26T19:29:36.768Z,13.80
2019-04-26T19:32:06.128Z,13.80
2019-04-26T19:34:35.250Z,13.70
2019-04-26T19:37:04.302Z,13.60
2019-04-26T19:39:35.488Z,13.60
2019-04-26T19:42:06.019Z,13.50
2019-04-26T19:44:33.919Z,13.50
2019-04-26T19:47:07.122Z,13.50
2019-04-26T19:49:46.349Z,13.40
2019-04-26T19:52:22.269Z,13.50
2019-04-26T19:54:53.019Z,13.50
2019-04-26T19:57:38.898Z,13.60
2019-04-26T20:00:07.636Z,13.70
2019-04-26T20:02:39.032Z,13.70
2019-04-26T20:05:06.439Z,13.60
2019-04-26T20:07:35.412Z,13.60
2019-04-26T20:10:05.307Z,13.60
2019-04-26T20:12:37.972Z,13.70
2019-04-26T20:15:06.828Z,13.70
2019-04-26T20:17:35.588Z,13.60
2019-04-26T20:20:16.810Z,13.40
2019-04-26T20:22:36.376Z,13.40
2019-04-26T20:25:06.021Z,13.30
2019-04-26T20:27:34.604Z,13.20
2019-04-26T20:30:05.519Z,13.10
2019-04-26T20:32:38.642Z,13.10
2019-04-26T20:35:19.714Z,13.10
2019-04-26T20:37:47.441Z,13.10
2019-04-26T20:40:21.747Z,13.00
2019-04-26T20:42:48.025Z,13.00
2019-04-26T20:45:17.441Z,12.90
2019-04-26T20:47:46.885Z,12.80
2019-04-26T20:50:16.391Z,12.70
2019-04-26T20:52:45.602Z,12.60
2019-04-26T20:55:14.460Z,12.50
2019-04-26T20:57:44.798Z,12.40
2019-04-26T21:00:14.363Z,12.50
2019-04-26T21:02:43.017Z,12.50
2019-04-26T21:05:14.653Z,12.60
2019-04-26T21:07:49.372Z,12.40
2019-04-26T21:10:21.116Z,12.40
2019-04-26T21:12:47.296Z,12.40
2019-04-26T21:15:15.724Z,12.40
2019-04-26T21:17:44.096Z,12.30
2019-04-26T21:20:12.864Z,12.20
2019-04-26T21:22:41.911Z,12.20
2019-04-26T21:25:18.670Z,12.10
2019-04-26T21:27:54.919Z,12.10
2019-04-26T21:30:33.611Z,12.10
2019-04-26T21:33:03.118Z,12.10
2019-04-26T21:35:49.155Z,12.10
2019-04-26T21:38:19.652Z,12.00
2019-04-26T21:40:50.844Z,12.00
2019-04-26T21:43:19.462Z,12.10
2019-04-26T21:45:48.084Z,12.10
2019-04-26T21:48:18.285Z,12.20
2019-04-26T21:50:47.010Z,12.30
2019-04-26T21:53:15.668Z,12.30
2019-04-26T21:55:44.368Z,12.30
2019-04-26T21:58:14.153Z,12.30
2019-04-26T22:00:48.084Z,12.20
2019-04-26T22:03:16.893Z,12.30
2019-04-26T22:05:49.873Z,12.30
2019-04-26T22:08:24.392Z,12.20
2019-04-26T22:10:48.291Z,12.30
2019-04-26T22:13:18.515Z,12.30
2019-04-26T22:15:49.149Z,12.30
2019-04-26T22:18:25.250Z,12.40
2019-04-26T22:21:04.229Z,12.30
2019-04-26T22:23:34.494Z,12.10
2019-04-26T22:26:06.770Z,12.00
2019-04-26T22:28:35.928Z,11.90
2019-04-26T22:31:08.310Z,11.90
2019-04-26T22:33:34.969Z,11.80
2019-04-26T22:36:04.132Z,11.80
2019-04-26T22:38:33.953Z,11.80
2019-04-26T22:41:03.174Z,11.80
2019-04-26T22:43:36.178Z,11.80
2019-04-26T22:46:27.016Z,11.80
2019-04-26T22:49:01.050Z,11.80
2019-04-26T22:51:24.093Z,11.80
2019-04-26T22:53:53.479Z,11.70
2019-04-26T22:56:23.237Z,11.70
2019-04-26T22:58:51.967Z,11.70
2019-04-26T23:01:21.071Z,11.70
2019-04-26T23:03:49.719Z,11.70
2019-04-26T23:06:18.644Z,11.70
2019-04-26T23:08:47.601Z,11.70
2019-04-26T23:11:16.256Z,11.60
2019-04-26T23:13:53.700Z,11.60
2019-04-26T23:16:24.639Z,11.60
2019-04-26T23:19:00.117Z,11.60
2019-04-26T23:21:33.915Z,11.60
2019-04-26T23:24:03.871Z,11.60
2019-04-26T23:26:33.438Z,11.60
2019-04-26T23:29:03.746Z,11.60
2019-04-26T23:31:33.463Z,11.50
2019-04-26T23:34:02.968Z,11.60
2019-04-26T23:36:31.673Z,11.70
2019-04-26T23:39:00.436Z,11.70
2019-04-26T23:41:29.162Z,11.70
2019-04-26T23:44:03.018Z,11.70
2019-04-26T23:46:28.207Z,11.70
2019-04-26T23:48:56.920Z,11.70
2019-04-26T23:51:26.252Z,11.70
2019-04-26T23:53:57.665Z,11.70
2019-04-26T23:56:25.498Z,11.60
2019-04-26T23:58:54.186Z,11.60
